Time;durP1;ratioP1;P1;durP2;ratioP2;P2;SDS_P1;SDS_P2;PMS_P1;PMS_P2;Temp;Humidity;BMP_temperature;BMP_pressure;BME280_temperature;BME280_humidity;BME280_pressure;Samples;Min_cycle;Max_cycle;Signal;HPM_P1;HPM_P2
2022/03/28 00:00:07;;;;;;;11.00;5.20;;;;;;;6.48;37.83;101098.19;105897;1278;26519;-73
2022/03/28 00:02:37;;;;;;;7.90;4.30;;;;;;;6.49;37.90;101100.48;106208;1277;24232;-71
2022/03/28 00:05:05;;;;;;;9.90;5.70;;;;;;;6.49;37.89;101096.64;106108;1276;22876;-72
2022/03/28 00:07:32;;;;;;;9.20;4.70;;;;;;;6.48;38.00;101094.86;106122;1275;24179;-70
2022/03/28 00:09:59;;;;;;;9.40;5.50;;;;;;;6.47;38.00;101089.07;106067;1276;22521;-71
2022/03/28 00:12:25;;;;;;;10.60;5.60;;;;;;;6.43;38.13;101079.02;106235;1275;25023;-71
2022/03/28 00:14:53;;;;;;;8.20;4.90;;;;;;;6.42;38.07;101086.90;106241;1274;24302;-77
2022/03/28 00:17:20;;;;;;;10.10;5.20;;;;;;;6.42;38.21;101082.34;106097;1274;25245;-73
2022/03/28 00:19:47;;;;;;;8.10;4.10;;;;;;;6.46;38.12;101076.45;107092;1276;25360;-71
2022/03/28 00:22:13;;;;;;;8.30;5.10;;;;;;;6.44;38.16;101075.38;108228;1276;22623;-73
2022/03/28 00:24:40;;;;;;;10.00;5.20;;;;;;;6.42;38.23;101064.15;107167;1274;24276;-73
2022/03/28 00:27:07;;;;;;;9.80;4.80;;;;;;;6.41;38.32;101063.77;108836;1276;22542;-73
2022/03/28 00:29:34;;;;;;;6.70;3.90;;;;;;;6.41;38.37;101059.41;108451;1273;26660;-73
2022/03/28 00:32:01;;;;;;;12.50;5.10;;;;;;;6.40;38.43;101051.86;106421;1275;22624;-75
2022/03/28 00:34:28;;;;;;;11.50;5.10;;;;;;;6.42;38.36;101046.48;106066;1276;22657;-75
2022/03/28 00:36:55;;;;;;;11.60;5.40;;;;;;;6.41;38.38;101047.34;106006;1276;25433;-73
2022/03/28 00:39:22;;;;;;;10.20;5.70;;;;;;;6.40;38.56;101044.70;106010;1274;24376;-74
2022/03/28 00:41:51;;;;;;;8.70;4.80;;;;;;;6.38;38.43;101041.66;105349;1284;22564;-71
2022/03/28 00:44:19;;;;;;;11.90;5.50;;;;;;;6.35;38.50;101032.34;105455;1281;24275;-69
2022/03/28 00:46:46;;;;;;;12.20;5.40;;;;;;;6.35;38.44;101035.83;105056;1284;24321;-71
2022/03/28 00:49:14;;;;;;;9.60;4.90;;;;;;;6.35;38.49;101037.59;104872;1288;25359;-73
2022/03/28 00:51:41;;;;;;;10.50;4.50;;;;;;;6.36;38.53;101027.45;104953;1284;24222;-70
2022/03/28 00:54:09;;;;;;;8.90;4.30;;;;;;;6.38;38.38;101026.79;105103;1284;22679;-72
2022/03/28 00:56:37;;;;;;;11.30;4.60;;;;;;;6.39;38.54;101019.98;105047;1285;23946;-73
2022/03/28 00:59:04;;;;;;;9.80;4.70;;;;;;;6.43;38.42;101016.75;105044;1285;24399;-71
2022/03/28 01:01:31;;;;;;;9.40;4.50;;;;;;;6.43;38.26;101007.66;105611;1280;22679;-72
2022/03/28 01:03:58;;;;;;;9.00;4.60;;;;;;;6.42;38.39;100999.58;105504;1280;25459;-73
2022/03/28 01:06:26;;;;;;;7.60;4.00;;;;;;;6.46;38.26;101002.45;105874;1277;25244;-72
2022/03/28 01:08:53;;;;;;;8.40;4.20;;;;;;;6.47;38.23;100994.77;105935;1276;22538;-71
2022/03/28 01:11:21;;;;;;;6.70;3.50;;;;;;;6.45;38.19;100985.28;105634;1278;22544;-70
2022/03/28 01:13:48;;;;;;;9.80;4.60;;;;;;;6.42;38.23;100977.55;105990;1276;22952;-72
2022/03/28 01:16:15;;;;;;;11.30;4.80;;;;;;;6.45;38.07;100974.27;105883;1277;22532;-70
2022/03/28 01:18:49;;;;;;;6.80;3.90;;;;;;;6.49;38.03;100973.45;105812;1277;25247;-70
2022/03/28 01:21:19;;;;;;;8.10;4.10;;;;;;;6.52;37.97;100967.02;105855;1275;22872;-71
2022/03/28 01:23:46;;;;;;;7.40;3.80;;;;;;;6.54;37.83;100959.35;106011;1274;22698;-72
2022/03/28 01:26:15;;;;;;;7.90;4.20;;;;;;;6.55;37.86;100963.73;105825;1278;22644;-70
2022/03/28 01:28:42;;;;;;;6.00;3.30;;;;;;;6.55;37.80;100958.33;105767;1278;22656;-72
2022/03/28 01:31:09;;;;;;;8.70;3.60;;;;;;;6.60;37.59;100948.96;105943;1275;25222;-73
2022/03/28 01:33:36;;;;;;;6.90;3.80;;;;;;;6.62;37.64;100943.39;106042;1274;23335;-71
2022/03/28 01:36:03;;;;;;;12.50;4.80;;;;;;;6.64;37.46;100941.67;105929;1274;25247;-69
2022/03/28 01:38:30;;;;;;;6.60;4.20;;;;;;;6.66;37.60;100943.63;105813;1276;24264;-80
2022/03/28 01:40:58;;;;;;;9.30;4.60;;;;;;;6.66;37.46;100943.28;105893;1278;22545;-70
2022/03/28 01:43:25;;;;;;;7.20;3.40;;;;;;;6.67;37.49;100936.65;105911;1275;25251;-71
2022/03/28 01:45:52;;;;;;;9.00;3.90;;;;;;;6.66;37.45;100927.89;105956;1276;22655;-72
2022/03/28 01:48:19;;;;;;;9.10;4.40;;;;;;;6.65;37.38;100927.85;105866;1278;22629;-72
2022/03/28 01:50:46;;;;;;;8.50;4.80;;;;;;;6.65;37.49;100919.64;105828;1278;25318;-72
2022/03/28 01:53:13;;;;;;;8.90;4.00;;;;;;;6.61;37.47;100914.15;105936;1278;24096;-71
2022/03/28 01:55:40;;;;;;;6.10;3.80;;;;;;;6.62;37.52;100911.71;106073;1274;24262;-74
2022/03/28 01:58:08;;;;;;;7.70;3.60;;;;;;;6.61;37.55;100911.00;105192;1282;24484;-71
2022/03/28 02:00:36;;;;;;;7.80;4.00;;;;;;;6.57;37.51;100907.96;105624;1281;22678;-75
2022/03/28 02:03:03;;;;;;;6.40;3.60;;;;;;;6.55;37.59;100907.77;105618;1281;22654;-72
2022/03/28 02:05:30;;;;;;;8.50;4.20;;;;;;;6.54;37.67;100902.14;105581;1281;22537;-72
2022/03/28 02:07:58;;;;;;;7.10;3.70;;;;;;;6.49;37.71;100897.15;105591;1281;22546;-71
2022/03/28 02:10:25;;;;;;;8.20;4.50;;;;;;;6.43;37.87;100888.85;105628;1281;23178;-73
2022/03/28 02:12:52;;;;;;;6.90;4.20;;;;;;;6.44;37.89;100893.94;105524;1281;23523;-71
2022/03/28 02:15:20;;;;;;;8.20;3.60;;;;;;;6.42;38.04;100897.59;105534;1279;22889;-72
2022/03/28 02:17:48;;;;;;;6.90;4.20;;;;;;;6.42;38.04;100892.86;106079;1274;26512;-70
2022/03/28 02:20:15;;;;;;;10.00;5.00;;;;;;;6.42;38.03;100893.20;106127;1274;24222;-71
2022/03/28 02:22:44;;;;;;;7.70;3.80;;;;;;;6.41;38.01;100895.30;105966;1274;23957;-74
2022/03/28 02:25:15;;;;;;;7.90;3.70;;;;;;;6.38;38.24;100891.02;106143;1274;22534;-74
2022/03/28 02:27:43;;;;;;;7.80;4.30;;;;;;;6.32;38.30;100884.45;106287;1274;25245;-72
2022/03/28 02:30:12;;;;;;;7.50;4.10;;;;;;;6.34;38.28;100884.84;106150;1274;24231;-69
2022/03/28 02:32:39;;;;;;;8.60;4.80;;;;;;;6.32;38.35;100885.34;106105;1274;25366;-73
2022/03/28 02:35:07;;;;;;;8.20;3.90;;;;;;;6.28;38.47;100878.11;106132;1274;25253;-73
2022/03/28 02:37:34;;;;;;;10.50;5.20;;;;;;;6.25;38.62;100878.58;106066;1274;22546;-72
2022/03/28 02:40:03;;;;;;;10.50;4.40;;;;;;;6.24;38.63;100883.98;105872;1278;24316;-71
2022/03/28 02:42:29;;;;;;;9.40;4.80;;;;;;;6.21;38.59;100891.46;105761;1278;25242;-69
2022/03/28 02:44:57;;;;;;;8.40;3.90;;;;;;;6.19;38.69;100886.88;105721;1277;22542;-70
2022/03/28 02:47:24;;;;;;;8.10;4.30;;;;;;;6.15;38.91;100883.48;105718;1280;25493;-72
2022/03/28 02:49:51;;;;;;;12.30;4.40;;;;;;;6.09;39.02;100883.20;105853;1278;22628;-74
2022/03/28 02:52:18;;;;;;;10.50;4.90;;;;;;;6.05;39.13;100881.92;105687;1281;22804;-74
2022/03/28 02:54:45;;;;;;;11.00;4.60;;;;;;;6.05;39.28;100877.04;105826;1278;26604;-72
2022/03/28 02:57:12;;;;;;;6.30;4.00;;;;;;;6.03;39.30;100875.39;105782;1277;26781;-73
2022/03/28 02:59:39;;;;;;;9.70;5.00;;;;;;;5.99;39.39;100871.29;106081;1274;22705;-78
2022/03/28 03:02:07;;;;;;;7.60;5.00;;;;;;;5.98;39.43;100865.86;106024;1274;26483;-70
2022/03/28 03:04:35;;;;;;;8.60;4.80;;;;;;;5.97;39.50;100862.33;106129;1274;24234;-73
2022/03/28 03:07:02;;;;;;;10.00;4.80;;;;;;;5.99;39.55;100865.70;106102;1274;25646;-74
2022/03/28 03:09:29;;;;;;;8.20;4.20;;;;;;;5.95;39.58;100864.06;106293;1274;22638;-74
2022/03/28 03:11:56;;;;;;;9.60;4.40;;;;;;;5.93;39.78;100861.21;106341;1274;25275;-74
2022/03/28 03:14:23;;;;;;;9.90;4.80;;;;;;;5.88;39.87;100862.71;106330;1274;22528;-72
2022/03/28 03:16:51;;;;;;;7.60;4.60;;;;;;;5.86;39.89;100857.42;106685;1274;22604;-75
2022/03/28 03:19:18;;;;;;;7.20;5.00;;;;;;;5.85;39.94;100857.77;106466;1274;22568;-73
2022/03/28 03:21:48;;;;;;;9.30;4.90;;;;;;;5.82;40.12;100858.77;106553;1274;22540;-73
2022/03/28 03:24:15;;;;;;;10.50;6.00;;;;;;;5.83;40.13;100853.89;106220;1275;22542;-73
2022/03/28 03:26:42;;;;;;;11.30;5.00;;;;;;;5.83;40.27;100858.09;106617;1272;23056;-80
2022/03/28 03:29:09;;;;;;;8.20;4.70;;;;;;;5.83;40.28;100852.84;109224;1274;22617;-74
2022/03/28 03:31:36;;;;;;;8.90;4.60;;;;;;;5.83;40.34;100851.44;108236;1273;22498;-73
2022/03/28 03:34:03;;;;;;;10.10;5.20;;;;;;;5.80;40.46;100851.39;107014;1276;23044;-73
2022/03/28 03:36:30;;;;;;;11.50;5.50;;;;;;;5.77;40.55;100842.77;108163;1276;25407;-72
2022/03/28 03:38:58;;;;;;;8.90;4.70;;;;;;;5.75;40.67;100839.75;107658;1277;22566;-73
2022/03/28 03:41:25;;;;;;;8.10;4.90;;;;;;;5.74;40.89;100833.27;106025;1276;24257;-74
2022/03/28 03:43:52;;;;;;;12.10;5.20;;;;;;;5.76;40.78;100834.88;105635;1279;22546;-73
2022/03/28 03:46:19;;;;;;;11.50;5.60;;;;;;;5.77;40.79;100830.89;105672;1277;22537;-72
2022/03/28 03:48:46;;;;;;;10.20;5.80;;;;;;;5.73;40.96;100829.76;105636;1278;25242;-73
2022/03/28 03:51:13;;;;;;;9.20;4.70;;;;;;;5.66;41.11;100820.38;105348;1278;24376;-73
2022/03/28 03:53:40;;;;;;;8.90;5.30;;;;;;;5.60;41.34;100825.15;105955;1274;23296;-70
2022/03/28 03:56:07;;;;;;;10.00;5.00;;;;;;;5.56;41.36;100818.64;106148;1272;22658;-71
2022/03/28 03:58:34;;;;;;;10.90;5.70;;;;;;;5.57;41.57;100816.20;106038;1274;25750;-72
2022/03/28 04:01:01;;;;;;;11.30;5.40;;;;;;;5.51;41.72;100816.59;106223;1274;23078;-71
2022/03/28 04:03:29;;;;;;;9.00;5.10;;;;;;;5.45;41.69;100812.48;105947;1274;26504;-74
2022/03/28 04:05:56;;;;;;;8.90;4.80;;;;;;;5.45;41.88;100817.89;106127;1274;25316;-74
2022/03/28 04:08:22;;;;;;;9.40;5.20;;;;;;;5.45;41.82;100811.08;106108;1274;23322;-78
2022/03/28 04:10:49;;;;;;;7.30;4.10;;;;;;;5.44;42.02;100808.45;106137;1273;24277;-73
2022/03/28 04:13:16;;;;;;;9.40;4.70;;;;;;;5.43;42.08;100808.08;106221;1273;24275;-74
2022/03/28 04:15:43;;;;;;;10.40;5.30;;;;;;;5.40;42.13;100806.11;106081;1273;22546;-80
2022/03/28 04:18:10;;;;;;;11.10;5.90;;;;;;;5.40;42.34;100805.58;106066;1273;23910;-74
2022/03/28 04:20:37;;;;;;;10.50;5.30;;;;;;;5.38;42.19;100804.50;106086;1271;22549;-71
2022/03/28 04:23:04;;;;;;;11.20;5.90;;;;;;;5.35;42.57;100795.88;106200;1271;25529;-78
2022/03/28 04:25:33;;;;;;;10.70;6.00;;;;;;;5.34;42.59;100796.56;106150;1273;22528;-76
2022/03/28 04:27:59;;;;;;;10.20;6.10;;;;;;;5.28;42.75;100790.49;106252;1273;22667;-79
2022/03/28 04:30:26;;;;;;;9.90;5.60;;;;;;;5.25;43.04;100799.34;106013;1274;22646;-77
2022/03/28 04:32:53;;;;;;;12.10;5.60;;;;;;;5.21;43.09;100794.05;106099;1274;22753;-78
2022/03/28 04:35:20;;;;;;;9.30;5.10;;;;;;;5.20;43.20;100787.73;106078;1273;22843;-79
2022/03/28 04:37:47;;;;;;;11.50;6.70;;;;;;;5.18;43.40;100791.02;106060;1273;22547;-85
2022/03/28 04:40:16;;;;;;;9.00;5.20;;;;;;;5.18;43.39;100784.91;105991;1273;22557;-77
2022/03/28 04:42:48;;;;;;;10.00;6.00;;;;;;;5.19;43.54;100774.45;105969;1274;23052;-77
2022/03/28 04:45:15;;;;;;;11.60;6.20;;;;;;;5.19;43.76;100778.65;106112;1273;25250;-78
2022/03/28 04:47:42;;;;;;;9.20;5.30;;;;;;;5.17;43.82;100773.90;106061;1273;23375;-78
2022/03/28 04:50:09;;;;;;;11.90;6.20;;;;;;;5.16;44.12;100769.86;106098;1274;25368;-75
2022/03/28 04:52:36;;;;;;;10.70;5.70;;;;;;;5.15;44.31;100767.92;105987;1274;22615;-77
2022/03/28 04:55:04;;;;;;;10.00;5.70;;;;;;;5.15;44.36;100764.77;106044;1274;24216;-75
2022/03/28 04:57:32;;;;;;;8.70;5.30;;;;;;;5.17;44.44;100761.30;105934;1274;22591;-77
2022/03/28 04:59:59;;;;;;;9.90;5.60;;;;;;;5.20;44.71;100759.27;106036;1273;22576;-74
2022/03/28 05:02:26;;;;;;;11.60;5.30;;;;;;;5.28;44.71;100768.16;106012;1273;22550;-75
2022/03/28 05:04:53;;;;;;;10.60;6.40;;;;;;;5.28;44.82;100766.76;106126;1274;24077;-74
2022/03/28 05:07:47;;;;;;;12.40;6.00;;;;;;;5.30;44.75;100767.32;106161;1273;22608;-74
2022/03/28 05:10:14;;;;;;;13.80;6.00;;;;;;;5.35;44.87;100767.74;106020;1274;24306;-75
2022/03/28 05:12:41;;;;;;;10.40;5.50;;;;;;;5.35;44.94;100759.56;105662;1279;22554;-72
2022/03/28 05:15:08;;;;;;;9.70;4.70;;;;;;;5.36;45.21;100761.48;105718;1277;24795;-72
2022/03/28 05:17:36;;;;;;;10.40;5.90;;;;;;;5.38;45.39;100763.27;105675;1277;22707;-75
2022/03/28 05:24:26;;;;;;;12.80;7.30;;;;;;;5.47;45.40;100754.69;105614;1277;22544;-75
2022/03/28 05:34:01;;;;;;;13.90;6.70;;;;;;;5.63;45.86;100752.00;106231;1274;22580;-75
2022/03/28 05:36:28;;;;;;;10.80;6.00;;;;;;;5.67;45.81;100751.54;106217;1274;25433;-75
2022/03/28 05:38:55;;;;;;;10.50;6.60;;;;;;;5.72;45.99;100748.48;107832;1273;22554;-88
2022/03/28 05:41:22;;;;;;;13.10;6.80;;;;;;;5.77;45.93;100753.64;108135;1275;22597;-89
2022/03/28 05:43:49;;;;;;;13.70;5.60;;;;;;;5.84;45.97;100757.05;107158;1274;24303;-84
2022/03/28 05:46:18;;;;;;;13.60;7.00;;;;;;;5.86;46.13;100752.04;106163;1273;22551;-84
2022/03/28 05:48:52;;;;;;;14.00;7.20;;;;;;;5.91;46.02;100760.31;106405;1274;22571;-84
2022/03/28 05:51:19;;;;;;;12.00;7.00;;;;;;;5.98;46.18;100753.80;106579;1274;25509;-83
2022/03/28 05:53:46;;;;;;;10.30;7.30;;;;;;;6.01;46.43;100757.52;106722;1274;24170;-84
2022/03/28 05:56:13;;;;;;;15.10;6.90;;;;;;;6.04;46.60;100749.35;106438;1274;22619;-85
2022/03/28 05:58:40;;;;;;;12.80;7.10;;;;;;;6.16;46.47;100753.57;106541;1273;22629;-83
2022/03/28 06:01:08;;;;;;;11.40;6.70;;;;;;;6.22;46.68;100749.45;106758;1275;22470;-84
2022/03/28 06:03:37;;;;;;;12.20;6.80;;;;;;;6.30;46.54;100748.33;106752;1275;22615;-85
2022/03/28 06:06:07;;;;;;;10.60;6.90;;;;;;;6.40;46.69;100753.73;106633;1275;22528;-83
2022/03/28 06:08:34;;;;;;;12.30;6.80;;;;;;;6.44;47.02;100747.49;106304;1275;22592;-86
2022/03/28 06:11:05;;;;;;;10.10;6.80;;;;;;;6.48;46.97;100743.35;106181;1274;25407;-84
2022/03/28 06:13:34;;;;;;;11.30;7.40;;;;;;;6.51;47.29;100745.83;106572;1274;23203;-84
2022/03/28 06:16:03;;;;;;;14.10;7.50;;;;;;;6.54;47.46;100741.66;106536;1274;24354;-84
2022/03/28 06:18:31;;;;;;;9.30;6.40;;;;;;;6.59;47.37;100741.39;106003;1275;22549;-85
2022/03/28 06:20:57;;;;;;;13.30;7.60;;;;;;;6.63;47.49;100737.77;106196;1274;22581;-83
2022/03/28 06:23:24;;;;;;;11.30;6.60;;;;;;;6.68;47.51;100731.88;106168;1274;24087;-83
2022/03/28 06:25:51;;;;;;;10.50;7.30;;;;;;;6.72;47.57;100731.21;106086;1276;22551;-86
2022/03/28 06:28:19;;;;;;;11.40;6.70;;;;;;;6.77;47.63;100729.71;106200;1274;22535;-85
2022/03/28 06:30:46;;;;;;;14.50;7.90;;;;;;;6.83;47.67;100726.27;106183;1274;22560;-85
2022/03/28 06:33:13;;;;;;;15.40;8.70;;;;;;;6.88;48.07;100723.71;106749;1274;22556;-84
2022/03/28 06:35:41;;;;;;;15.70;7.00;;;;;;;6.93;47.97;100722.89;107031;1274;22833;-84
2022/03/28 06:38:08;;;;;;;12.50;6.70;;;;;;;6.98;48.12;100722.75;108849;1274;22480;-84
2022/03/28 06:40:35;;;;;;;18.00;7.90;;;;;;;7.02;48.24;100723.31;109203;1274;22540;-83
2022/03/28 06:43:03;;;;;;;11.60;7.30;;;;;;;7.10;48.31;100726.92;109326;1274;22649;-88
2022/03/28 06:45:31;;;;;;;14.20;7.80;;;;;;;7.15;48.33;100717.70;109575;1274;22847;-84
2022/03/28 06:47:58;;;;;;;14.10;7.80;;;;;;;7.24;48.37;100712.52;109568;1274;22691;-89
2022/03/28 06:50:44;;;;;;;13.90;8.30;;;;;;;7.33;48.39;100712.61;109556;1274;22666;-87
2022/03/28 06:53:12;;;;;;;15.80;8.80;;;;;;;7.41;48.48;100706.20;107259;1275;25613;-85
2022/03/28 06:55:39;;;;;;;15.50;8.40;;;;;;;7.49;48.52;100706.45;106237;1281;22484;-85
2022/03/28 06:58:06;;;;;;;15.10;8.30;;;;;;;7.58;48.53;100701.95;106950;1281;22631;-84
2022/03/28 07:00:34;;;;;;;15.30;9.30;;;;;;;7.68;48.65;100698.55;106856;1281;25452;-85
2022/03/28 07:03:01;;;;;;;14.50;7.80;;;;;;;7.75;48.56;100694.55;105582;1284;23024;-85
2022/03/28 07:05:28;;;;;;;12.00;8.30;;;;;;;7.80;48.68;100694.94;105369;1285;22513;-86
2022/03/28 07:07:56;;;;;;;15.70;8.00;;;;;;;7.86;48.78;100690.77;105174;1285;25486;-86
2022/03/28 07:10:23;;;;;;;15.60;8.30;;;;;;;7.90;49.01;100685.90;105251;1285;22704;-83
2022/03/28 07:12:54;;;;;;;13.10;7.50;;;;;;;7.99;48.99;100684.90;105320;1284;22544;-84
2022/03/28 07:15:21;;;;;;;12.00;7.70;;;;;;;8.08;49.18;100680.55;105801;1279;24263;-81
2022/03/28 07:17:54;;;;;;;14.50;8.20;;;;;;;8.10;49.43;100671.12;106185;1279;25503;-86
2022/03/28 07:20:23;;;;;;;13.90;8.30;;;;;;;8.19;49.54;100673.61;106026;1276;23338;-86
2022/03/28 07:22:51;;;;;;;14.50;8.60;;;;;;;8.27;49.68;100664.17;106382;1275;24265;-82
2022/03/28 07:25:19;;;;;;;14.10;8.90;;;;;;;8.38;49.73;100663.36;106050;1275;22748;-84
2022/03/28 07:27:47;;;;;;;12.40;7.90;;;;;;;8.51;49.98;100655.67;106037;1275;25089;-86
2022/03/28 07:30:15;;;;;;;17.70;7.90;;;;;;;8.62;50.25;100657.86;106107;1274;22556;-87
2022/03/28 07:32:42;;;;;;;12.00;7.40;;;;;;;8.70;50.54;100657.00;105904;1274;26480;-84
2022/03/28 07:35:10;;;;;;;11.70;7.40;;;;;;;8.76;50.68;100657.20;105997;1274;22712;-86
2022/03/28 07:37:38;;;;;;;15.80;8.60;;;;;;;8.84;50.68;100655.98;106137;1274;22622;-87
2022/03/28 07:40:07;;;;;;;11.60;7.30;;;;;;;8.94;51.11;100650.02;106126;1274;22548;-86
2022/03/28 07:42:35;;;;;;;18.80;8.50;;;;;;;9.00;51.32;100653.91;106366;1274;24227;-86
2022/03/28 07:45:05;;;;;;;15.20;9.00;;;;;;;9.05;51.79;100641.26;106155;1274;26587;-86
2022/03/28 07:47:32;;;;;;;14.40;7.40;;;;;;;9.15;51.36;100646.19;106163;1274;24361;-85
2022/03/28 07:50:02;;;;;;;12.00;8.40;;;;;;;9.21;51.70;100634.60;106075;1275;25405;-84
2022/03/28 07:52:29;;;;;;;15.60;8.60;;;;;;;9.25;52.16;100631.61;105990;1275;25019;-85
2022/03/28 07:54:56;;;;;;;15.50;7.90;;;;;;;9.31;52.20;100631.80;105667;1278;22797;-84
2022/03/28 07:57:23;;;;;;;14.00;9.00;;;;;;;9.37;52.20;100626.16;105609;1278;22553;-85
2022/03/28 07:59:50;;;;;;;14.90;8.10;;;;;;;9.44;52.11;100616.67;105709;1277;24233;-86
2022/03/28 08:02:40;;;;;;;17.90;8.50;;;;;;;9.51;52.06;100609.98;105656;1277;24277;-86
2022/03/28 08:05:08;;;;;;;14.70;7.50;;;;;;;9.58;51.98;100599.42;105729;1278;25476;-85
2022/03/28 08:07:36;;;;;;;15.00;8.10;;;;;;;9.66;52.07;100598.17;105696;1277;22546;-85
2022/03/28 08:10:09;;;;;;;12.50;8.30;;;;;;;9.79;52.07;100594.46;105649;1277;22549;-82
2022/03/28 08:12:37;;;;;;;14.80;7.10;;;;;;;9.93;51.89;100596.00;105553;1277;22555;-83
2022/03/28 08:15:06;;;;;;;19.00;9.20;;;;;;;10.06;52.01;100591.02;105835;1274;24240;-89
2022/03/28 08:17:38;;;;;;;17.40;7.80;;;;;;;10.17;52.00;100584.83;105912;1274;22563;-84
2022/03/28 08:20:09;;;;;;;13.90;7.50;;;;;;;10.31;51.89;100576.84;105791;1275;24487;-86
2022/03/28 08:22:49;;;;;;;15.10;6.90;;;;;;;10.47;51.97;100581.89;105924;1275;25261;-85
2022/03/28 08:25:19;;;;;;;16.40;8.60;;;;;;;10.58;51.73;100575.14;106198;1274;25354;-83
2022/03/28 08:27:46;;;;;;;14.20;7.70;;;;;;;10.69;51.62;100572.61;105779;1274;452916;-83
2022/03/28 08:30:13;;;;;;;14.10;7.80;;;;;;;10.86;51.33;100575.48;105954;1276;22617;-84
2022/03/28 08:32:42;;;;;;;20.00;7.40;;;;;;;10.97;51.22;100572.41;105860;1274;24224;-83
2022/03/28 08:35:11;;;;;;;16.10;7.40;;;;;;;11.06;51.10;100567.05;105898;1276;24281;-84
2022/03/28 08:37:38;;;;;;;19.60;7.70;;;;;;;11.13;50.99;100565.77;105951;1275;22535;-84
2022/03/28 08:40:13;;;;;;;19.50;8.20;;;;;;;11.20;50.84;100569.56;106069;1274;23272;-86
2022/03/28 08:42:40;;;;;;;17.40;6.80;;;;;;;11.29;50.69;100562.45;105934;1276;22544;-84
2022/03/28 08:45:11;;;;;;;15.20;6.70;;;;;;;11.37;50.31;100547.39;106021;1276;22779;-86
2022/03/28 08:47:42;;;;;;;23.80;7.40;;;;;;;11.45;49.88;100552.95;105944;1275;25383;-84
2022/03/28 08:50:30;;;;;;;14.90;6.60;;;;;;;11.55;49.51;100542.27;105989;1275;25282;-85
2022/03/28 08:52:58;;;;;;;9.70;6.40;;;;;;;11.69;49.14;100545.81;105874;1274;25955;-86
2022/03/28 08:55:25;;;;;;;24.20;7.50;;;;;;;11.81;48.81;100550.43;106211;1274;25640;-86
2022/03/28 08:57:52;;;;;;;13.60;6.50;;;;;;;11.92;48.09;100543.61;106163;1274;22691;-84
2022/03/28 09:00:19;;;;;;;17.10;7.10;;;;;;;12.02;47.99;100535.36;106218;1274;22671;-87
2022/03/28 09:02:48;;;;;;;12.40;6.30;;;;;;;12.15;47.93;100536.80;106088;1274;24238;-86
2022/03/28 09:05:18;;;;;;;14.50;6.60;;;;;;;12.29;47.43;100531.86;106377;1273;22559;-84
2022/03/28 09:07:46;;;;;;;16.70;6.80;;;;;;;12.40;46.85;100531.89;106335;1273;22531;-85
2022/03/28 09:10:15;;;;;;;13.90;7.00;;;;;;;12.44;46.68;100529.35;106513;1273;22832;-86
2022/03/28 09:13:09;;;;;;;15.00;5.50;;;;;;;12.50;46.10;100525.55;106134;1273;24782;-85
2022/03/28 09:16:17;;;;;;;18.30;6.90;;;;;;;12.58;44.93;100508.30;105932;1274;22578;-87
2022/03/28 09:18:44;;;;;;;15.00;6.90;;;;;;;12.77;44.55;100519.64;105930;1274;22691;-87
2022/03/28 09:21:16;;;;;;;16.90;7.20;;;;;;;12.83;43.82;100510.73;106012;1274;25377;-88
2022/03/28 09:23:45;;;;;;;15.50;6.00;;;;;;;12.85;43.58;100513.16;106149;1273;22854;-84
2022/03/28 09:26:21;;;;;;;16.80;7.00;;;;;;;12.93;43.67;100503.86;106140;1273;23298;-86
2022/03/28 09:29:01;;;;;;;12.20;5.90;;;;;;;13.04;43.63;100500.66;106181;1273;22548;-84
2022/03/28 09:31:31;;;;;;;13.90;6.60;;;;;;;13.15;43.16;100495.35;106147;1273;22826;-85
2022/03/28 09:34:15;;;;;;;12.80;6.30;;;;;;;13.26;42.15;100486.48;106274;1274;25246;-86
2022/03/28 09:36:50;;;;;;;11.50;5.90;;;;;;;13.37;41.45;100485.56;106091;1273;22756;-85
2022/03/28 09:39:32;;;;;;;11.90;6.10;;;;;;;13.50;41.36;100483.91;106147;1274;24199;-86
2022/03/28 09:42:08;;;;;;;11.00;6.00;;;;;;;13.63;40.76;100486.31;106285;1273;25001;-87
2022/03/28 09:44:46;;;;;;;10.10;5.70;;;;;;;13.68;40.23;100474.54;106911;1273;23051;-85
2022/03/28 09:47:14;;;;;;;15.80;6.20;;;;;;;13.79;40.46;100464.77;109217;1273;23140;-86
2022/03/28 09:49:44;;;;;;;15.20;6.80;;;;;;;14.02;40.19;100458.59;109076;1273;22550;-85
2022/03/28 09:52:18;;;;;;;9.10;4.90;;;;;;;14.21;39.60;100459.41;109297;1273;22626;-84
2022/03/28 09:54:45;;;;;;;10.60;6.00;;;;;;;14.35;39.61;100460.17;109374;1273;22689;-85
2022/03/28 09:57:17;;;;;;;9.10;5.40;;;;;;;14.42;38.47;100451.32;109235;1273;22540;-85
2022/03/28 09:59:44;;;;;;;10.30;5.30;;;;;;;14.44;38.14;100444.88;108813;1273;22539;-85
2022/03/28 10:02:14;;;;;;;10.40;5.90;;;;;;;14.55;38.46;100442.13;106263;1274;22552;-85
2022/03/28 10:04:45;;;;;;;9.50;5.60;;;;;;;14.75;38.08;100444.83;106129;1274;25428;-84
2022/03/28 10:07:12;;;;;;;14.00;6.30;;;;;;;14.86;37.15;100441.94;106411;1273;24325;-84
2022/03/28 10:09:39;;;;;;;9.80;5.60;;;;;;;14.91;37.03;100433.63;105924;1273;22504;-85
2022/03/28 10:12:07;;;;;;;13.90;5.90;;;;;;;15.04;36.98;100440.20;106020;1273;22537;-84
2022/03/28 10:14:37;;;;;;;7.90;5.90;;;;;;;15.18;36.96;100435.92;106208;1273;25361;-85
2022/03/28 10:17:06;;;;;;;10.90;5.60;;;;;;;15.18;36.71;100426.71;106341;1273;24266;-84
2022/03/28 10:19:38;;;;;;;12.40;5.50;;;;;;;15.27;36.81;100419.71;106197;1273;22661;-84
2022/03/28 10:22:22;;;;;;;9.20;6.30;;;;;;;15.35;36.50;100418.60;105899;1276;24300;-85
2022/03/28 10:24:52;;;;;;;12.30;6.20;;;;;;;15.38;36.46;100408.93;106041;1277;25369;-86
2022/03/28 10:27:19;;;;;;;9.80;5.30;;;;;;;15.52;36.54;100402.51;106066;1276;22537;-85
2022/03/28 10:29:46;;;;;;;9.50;6.30;;;;;;;15.73;36.39;100409.17;106156;1276;22663;-86
2022/03/28 10:32:20;;;;;;;10.20;6.40;;;;;;;15.89;35.72;100404.41;105824;1277;22548;-85
2022/03/28 10:34:48;;;;;;;13.40;5.90;;;;;;;15.94;35.36;100396.27;105900;1277;22535;-84
2022/03/28 10:37:26;;;;;;;16.40;6.70;;;;;;;15.93;35.31;100391.14;105804;1276;23843;-87
2022/03/28 10:40:16;;;;;;;11.80;6.00;;;;;;;15.86;35.24;100381.77;105814;1274;24786;-82
2022/03/28 10:42:48;;;;;;;12.60;6.60;;;;;;;15.83;35.30;100384.34;106225;1273;22595;-83
2022/03/28 10:45:19;;;;;;;14.80;6.20;;;;;;;15.87;35.44;100379.44;106365;1273;22700;-84
2022/03/28 10:47:54;;;;;;;9.70;6.10;;;;;;;15.92;35.59;100368.63;106756;1274;25387;-84
2022/03/28 10:50:32;;;;;;;13.30;6.20;;;;;;;15.99;35.52;100374.81;106390;1273;25371;-84
2022/03/28 10:53:10;;;;;;;15.60;6.30;;;;;;;16.08;35.23;100369.05;106808;1273;22768;-83
2022/03/28 10:55:46;;;;;;;12.90;5.10;;;;;;;16.09;34.90;100357.65;106399;1273;22532;-84
2022/03/28 10:58:51;;;;;;;12.90;6.00;;;;;;;16.15;35.10;100351.59;106136;1273;22547;-81
2022/03/28 11:01:22;;;;;;;9.70;5.40;;;;;;;16.27;34.38;100354.91;105685;1281;22694;-84
2022/03/28 11:04:22;;;;;;;15.00;5.00;;;;;;;16.29;34.25;100343.48;106259;1273;22532;-86
2022/03/28 11:07:02;;;;;;;12.40;5.20;;;;;;;16.54;34.22;100333.22;106311;1273;22605;-85
2022/03/28 11:09:34;;;;;;;11.60;4.60;;;;;;;16.81;33.89;100325.00;107228;1273;22582;-84
2022/03/28 11:12:10;;;;;;;13.00;3.80;;;;;;;16.98;32.32;100328.65;108755;1273;22670;-84
2022/03/28 11:14:44;;;;;;;13.20;3.50;;;;;;;16.91;32.34;100328.19;107225;1273;24241;-85
2022/03/28 11:17:18;;;;;;;10.50;4.40;;;;;;;16.93;31.38;100317.78;106102;1273;22590;-85
2022/03/28 11:20:03;;;;;;;11.00;4.10;;;;;;;16.90;31.42;100317.00;106132;1273;22751;-86
2022/03/28 11:22:47;;;;;;;18.80;3.70;;;;;;;16.96;31.77;100312.16;105947;1274;25378;-85
2022/03/28 11:25:31;;;;;;;13.20;3.40;;;;;;;17.19;32.00;100309.91;106291;1273;25370;-85
2022/03/28 11:28:12;;;;;;;15.00;3.90;;;;;;;17.36;31.72;100308.23;106235;1273;22698;-86
2022/03/28 11:30:46;;;;;;;10.70;3.50;;;;;;;17.52;31.39;100291.91;106196;1276;22557;-85
2022/03/28 11:33:17;;;;;;;9.80;3.60;;;;;;;17.58;30.84;100289.20;106460;1273;24239;-85
2022/03/28 11:35:57;;;;;;;9.10;3.20;;;;;;;17.55;30.32;100287.73;106209;1273;25407;-85
2022/03/28 11:38:27;;;;;;;12.90;3.40;;;;;;;17.54;30.84;100277.45;106192;1273;25226;-85